sensor_id;sensor_type;location;lat;lon;timestamp;temperature;humidity
33564;DHT22;19894;48.452;11.494;2022-11-15T00:00:43;19.20;42.60
33564;DHT22;19894;48.452;11.494;2022-11-15T00:03:08;19.10;42.40
33564;DHT22;19894;48.452;11.494;2022-11-15T00:05:35;19.10;42.20
33564;DHT22;19894;48.452;11.494;2022-11-15T00:08:01;19.10;42.10
33564;DHT22;19894;48.452;11.494;2022-11-15T00:10:27;19.20;42.00
33564;DHT22;19894;48.452;11.494;2022-11-15T00:12:52;19.10;41.90
33564;DHT22;19894;48.452;11.494;2022-11-15T00:15:18;19.20;41.70
33564;DHT22;19894;48.452;11.494;2022-11-15T00:17:44;19.20;41.60
33564;DHT22;19894;48.452;11.494;2022-11-15T00:20:10;19.20;41.50
33564;DHT22;19894;48.452;11.494;2022-11-15T00:22:37;19.20;41.40
33564;DHT22;19894;48.452;11.494;2022-11-15T00:25:02;19.20;41.50
33564;DHT22;19894;48.452;11.494;2022-11-15T00:27:28;19.20;41.70
33564;DHT22;19894;48.452;11.494;2022-11-15T00:29:54;19.20;42.00
33564;DHT22;19894;48.452;11.494;2022-11-15T00:32:19;19.20;42.10
33564;DHT22;19894;48.452;11.494;2022-11-15T00:34:45;19.20;42.20
33564;DHT22;19894;48.452;11.494;2022-11-15T00:37:10;19.20;42.30
33564;DHT22;19894;48.452;11.494;2022-11-15T00:39:36;19.20;42.40
33564;DHT22;19894;48.452;11.494;2022-11-15T00:42:03;19.20;42.40
33564;DHT22;19894;48.452;11.494;2022-11-15T00:44:28;19.20;42.40
33564;DHT22;19894;48.452;11.494;2022-11-15T00:46:54;19.20;42.50
33564;DHT22;19894;48.452;11.494;2022-11-15T00:49:19;19.10;42.40
33564;DHT22;19894;48.452;11.494;2022-11-15T00:51:45;19.10;42.40
33564;DHT22;19894;48.452;11.494;2022-11-15T00:54:11;19.10;42.40
33564;DHT22;19894;48.452;11.494;2022-11-15T00:56:36;19.10;42.30
33564;DHT22;19894;48.452;11.494;2022-11-15T00:59:02;19.10;42.40
33564;DHT22;19894;48.452;11.494;2022-11-15T01:01:27;19.10;42.30
33564;DHT22;19894;48.452;11.494;2022-11-15T01:03:53;19.10;42.30
33564;DHT22;19894;48.452;11.494;2022-11-15T01:06:18;19.10;42.30
33564;DHT22;19894;48.452;11.494;2022-11-15T01:08:44;19.10;42.10
33564;DHT22;19894;48.452;11.494;2022-11-15T01:11:11;19.10;41.80
33564;DHT22;19894;48.452;11.494;2022-11-15T01:13:38;19.10;41.90
33564;DHT22;19894;48.452;11.494;2022-11-15T01:16:09;19.10;41.70
33564;DHT22;19894;48.452;11.494;2022-11-15T01:18:36;19.20;41.60
33564;DHT22;19894;48.452;11.494;2022-11-15T01:21:07;19.20;41.40
33564;DHT22;19894;48.452;11.494;2022-11-15T01:23:33;19.20;41.20
33564;DHT22;19894;48.452;11.494;2022-11-15T01:26:03;19.20;41.10
33564;DHT22;19894;48.452;11.494;2022-11-15T01:28:30;19.20;41.00
33564;DHT22;19894;48.452;11.494;2022-11-15T01:30:58;19.20;41.20
33564;DHT22;19894;48.452;11.494;2022-11-15T01:33:24;19.10;41.40
33564;DHT22;19894;48.452;11.494;2022-11-15T01:35:50;19.10;41.70
33564;DHT22;19894;48.452;11.494;2022-11-15T01:38:16;19.20;41.90
33564;DHT22;19894;48.452;11.494;2022-11-15T01:40:41;19.10;41.90
33564;DHT22;19894;48.452;11.494;2022-11-15T01:43:31;19.20;42.00
33564;DHT22;19894;48.452;11.494;2022-11-15T01:46:23;19.10;42.00
33564;DHT22;19894;48.452;11.494;2022-11-15T01:48:51;19.10;42.10
33564;DHT22;19894;48.452;11.494;2022-11-15T01:51:19;19.10;42.20
33564;DHT22;19894;48.452;11.494;2022-11-15T01:53:47;19.10;42.20
33564;DHT22;19894;48.452;11.494;2022-11-15T01:56:19;19.10;42.20
33564;DHT22;19894;48.452;11.494;2022-11-15T01:58:45;19.10;42.20
33564;DHT22;19894;48.452;11.494;2022-11-15T02:01:12;19.10;42.10
33564;DHT22;19894;48.452;11.494;2022-11-15T02:03:53;19.10;42.10
33564;DHT22;19894;48.452;11.494;2022-11-15T02:06:21;19.10;42.00
33564;DHT22;19894;48.452;11.494;2022-11-15T02:08:47;19.10;41.90
33564;DHT22;19894;48.452;11.494;2022-11-15T02:11:12;19.10;41.90
33564;DHT22;19894;48.452;11.494;2022-11-15T02:13:39;19.10;41.80
33564;DHT22;19894;48.452;11.494;2022-11-15T02:16:35;19.10;41.60
33564;DHT22;19894;48.452;11.494;2022-11-15T02:29:48;19.10;40.60
33564;DHT22;19894;48.452;11.494;2022-11-15T02:32:18;19.10;40.50
33564;DHT22;19894;48.452;11.494;2022-11-15T02:37:44;19.10;40.90
33564;DHT22;19894;48.452;11.494;2022-11-15T02:42:57;19.20;41.40
33564;DHT22;19894;48.452;11.494;2022-11-15T02:45:48;19.10;41.60
33564;DHT22;19894;48.452;11.494;2022-11-15T02:48:17;19.10;41.60
33564;DHT22;19894;48.452;11.494;2022-11-15T02:50:43;19.10;41.50
33564;DHT22;19894;48.452;11.494;2022-11-15T02:53:09;19.10;41.60
33564;DHT22;19894;48.452;11.494;2022-11-15T02:55:43;19.10;41.60
33564;DHT22;19894;48.452;11.494;2022-11-15T02:58:41;19.10;41.70
33564;DHT22;19894;48.452;11.494;2022-11-15T03:03:57;19.10;41.70
33564;DHT22;19894;48.452;11.494;2022-11-15T03:09:32;19.10;41.60
33564;DHT22;19894;48.452;11.494;2022-11-15T03:12:16;19.10;41.60
33564;DHT22;19894;48.452;11.494;2022-11-15T03:17:51;19.10;41.50
33564;DHT22;19894;48.452;11.494;2022-11-15T03:20:19;19.10;41.30
33564;DHT22;19894;48.452;11.494;2022-11-15T03:22:46;19.10;41.30
33564;DHT22;19894;48.452;11.494;2022-11-15T03:25:19;19.10;41.20
33564;DHT22;19894;48.452;11.494;2022-11-15T03:27:50;19.10;40.90
33564;DHT22;19894;48.452;11.494;2022-11-15T03:30:17;19.10;40.70
33564;DHT22;19894;48.452;11.494;2022-11-15T03:32:56;19.10;40.50
33564;DHT22;19894;48.452;11.494;2022-11-15T03:35:25;19.10;40.40
33564;DHT22;19894;48.452;11.494;2022-11-15T03:37:59;19.10;40.30
33564;DHT22;19894;48.452;11.494;2022-11-15T03:40:39;19.10;40.30
33564;DHT22;19894;48.452;11.494;2022-11-15T03:43:24;19.10;40.50
33564;DHT22;19894;48.452;11.494;2022-11-15T03:45:58;19.20;40.70
33564;DHT22;19894;48.452;11.494;2022-11-15T03:48:29;19.10;41.00
33564;DHT22;19894;48.452;11.494;2022-11-15T03:50:56;19.10;41.20
33564;DHT22;19894;48.452;11.494;2022-11-15T03:53:21;19.10;41.20
33564;DHT22;19894;48.452;11.494;2022-11-15T03:55:47;19.10;41.20
33564;DHT22;19894;48.452;11.494;2022-11-15T03:58:13;19.10;41.40
33564;DHT22;19894;48.452;11.494;2022-11-15T04:00:38;19.10;41.50
33564;DHT22;19894;48.452;11.494;2022-11-15T04:03:04;19.10;41.60
33564;DHT22;19894;48.452;11.494;2022-11-15T04:05:29;19.10;41.60
33564;DHT22;19894;48.452;11.494;2022-11-15T04:07:55;19.10;41.50
33564;DHT22;19894;48.452;11.494;2022-11-15T04:10:20;19.10;41.60
33564;DHT22;19894;48.452;11.494;2022-11-15T04:12:46;19.10;41.60
33564;DHT22;19894;48.452;11.494;2022-11-15T04:15:18;19.10;41.50
33564;DHT22;19894;48.452;11.494;2022-11-15T04:17:49;19.10;41.50
33564;DHT22;19894;48.452;11.494;2022-11-15T04:20:18;19.10;41.50
33564;DHT22;19894;48.452;11.494;2022-11-15T04:23:05;19.10;41.40
33564;DHT22;19894;48.452;11.494;2022-11-15T04:25:51;19.10;41.40
33564;DHT22;19894;48.452;11.494;2022-11-15T04:28:18;19.10;41.00
33564;DHT22;19894;48.452;11.494;2022-11-15T04:30:43;19.00;40.80
33564;DHT22;19894;48.452;11.494;2022-11-15T04:33:09;19.10;40.70
33564;DHT22;19894;48.452;11.494;2022-11-15T04:35:35;19.10;40.50
33564;DHT22;19894;48.452;11.494;2022-11-15T04:38:04;19.10;40.40
33564;DHT22;19894;48.452;11.494;2022-11-15T04:40:30;19.10;40.10
33564;DHT22;19894;48.452;11.494;2022-11-15T04:42:56;19.10;40.00
33564;DHT22;19894;48.452;11.494;2022-11-15T04:45:22;19.10;39.90
33564;DHT22;19894;48.452;11.494;2022-11-15T04:47:48;19.10;39.90
33564;DHT22;19894;48.452;11.494;2022-11-15T04:50:14;19.10;40.00
33564;DHT22;19894;48.452;11.494;2022-11-15T04:52:49;19.10;40.40
33564;DHT22;19894;48.452;11.494;2022-11-15T04:55:15;19.10;40.60
33564;DHT22;19894;48.452;11.494;2022-11-15T04:57:40;19.10;40.80
33564;DHT22;19894;48.452;11.494;2022-11-15T05:00:08;19.10;40.90
33564;DHT22;19894;48.452;11.494;2022-11-15T05:02:34;19.10;41.00
33564;DHT22;19894;48.452;11.494;2022-11-15T05:05:19;19.10;41.00
33564;DHT22;19894;48.452;11.494;2022-11-15T05:07:44;19.10;41.10
33564;DHT22;19894;48.452;11.494;2022-11-15T05:10:10;19.10;41.10
33564;DHT22;19894;48.452;11.494;2022-11-15T05:12:36;19.10;41.20
33564;DHT22;19894;48.452;11.494;2022-11-15T05:15:02;19.10;41.20
33564;DHT22;19894;48.452;11.494;2022-11-15T05:17:28;19.10;41.20
33564;DHT22;19894;48.452;11.494;2022-11-15T05:19:54;19.10;41.20
33564;DHT22;19894;48.452;11.494;2022-11-15T05:22:20;19.10;41.10
33564;DHT22;19894;48.452;11.494;2022-11-15T05:24:45;19.10;41.20
33564;DHT22;19894;48.452;11.494;2022-11-15T05:27:11;19.10;41.10
33564;DHT22;19894;48.452;11.494;2022-11-15T05:29:36;19.10;41.00
33564;DHT22;19894;48.452;11.494;2022-11-15T05:32:05;19.10;41.00
33564;DHT22;19894;48.452;11.494;2022-11-15T05:34:31;19.10;40.70
33564;DHT22;19894;48.452;11.494;2022-11-15T05:36:57;19.10;40.50
33564;DHT22;19894;48.452;11.494;2022-11-15T05:39:24;19.10;40.30
33564;DHT22;19894;48.452;11.494;2022-11-15T05:41:54;19.10;40.30
33564;DHT22;19894;48.452;11.494;2022-11-15T05:44:22;19.10;40.10
33564;DHT22;19894;48.452;11.494;2022-11-15T05:46:50;19.10;39.60
33564;DHT22;19894;48.452;11.494;2022-11-15T05:49:18;19.10;39.40
33564;DHT22;19894;48.452;11.494;2022-11-15T05:51:44;19.10;39.40
33564;DHT22;19894;48.452;11.494;2022-11-15T05:54:12;19.10;39.40
33564;DHT22;19894;48.452;11.494;2022-11-15T05:56:38;19.10;39.70
33564;DHT22;19894;48.452;11.494;2022-11-15T05:59:04;19.10;40.00
33564;DHT22;19894;48.452;11.494;2022-11-15T06:01:30;19.10;40.20
33564;DHT22;19894;48.452;11.494;2022-11-15T06:03:56;19.10;40.50
33564;DHT22;19894;48.452;11.494;2022-11-15T06:06:21;19.10;40.50
33564;DHT22;19894;48.452;11.494;2022-11-15T06:08:47;19.10;40.60
33564;DHT22;19894;48.452;11.494;2022-11-15T06:11:13;19.10;40.70
33564;DHT22;19894;48.452;11.494;2022-11-15T06:13:39;19.10;40.80
33564;DHT22;19894;48.452;11.494;2022-11-15T06:16:05;19.10;40.80
33564;DHT22;19894;48.452;11.494;2022-11-15T06:18:34;19.10;40.90
33564;DHT22;19894;48.452;11.494;2022-11-15T06:21:00;19.10;40.90
33564;DHT22;19894;48.452;11.494;2022-11-15T06:23:27;19.00;40.80
33564;DHT22;19894;48.452;11.494;2022-11-15T06:25:53;19.10;40.80
33564;DHT22;19894;48.452;11.494;2022-11-15T06:28:18;19.10;40.80
33564;DHT22;19894;48.452;11.494;2022-11-15T06:30:44;19.10;40.70
33564;DHT22;19894;48.452;11.494;2022-11-15T06:33:09;19.10;40.60
33564;DHT22;19894;48.452;11.494;2022-11-15T06:35:35;19.10;40.60
33564;DHT22;19894;48.452;11.494;2022-11-15T06:38:03;19.10;40.60
33564;DHT22;19894;48.452;11.494;2022-11-15T06:40:29;19.00;40.30
33564;DHT22;19894;48.452;11.494;2022-11-15T06:42:58;19.10;40.20
33564;DHT22;19894;48.452;11.494;2022-11-15T06:45:25;19.10;40.00
33564;DHT22;19894;48.452;11.494;2022-11-15T06:47:50;19.10;39.90
33564;DHT22;19894;48.452;11.494;2022-11-15T06:50:16;19.10;39.70
33564;DHT22;19894;48.452;11.494;2022-11-15T06:52:41;19.10;39.40
33564;DHT22;19894;48.452;11.494;2022-11-15T06:55:08;19.10;39.10
33564;DHT22;19894;48.452;11.494;2022-11-15T06:57:34;19.10;39.10
33564;DHT22;19894;48.452;11.494;2022-11-15T06:59:59;19.10;39.20
33564;DHT22;19894;48.452;11.494;2022-11-15T07:02:25;19.10;39.40
33564;DHT22;19894;48.452;11.494;2022-11-15T07:04:51;19.10;39.80
33564;DHT22;19894;48.452;11.494;2022-11-15T07:07:16;19.10;40.00
33564;DHT22;19894;48.452;11.494;2022-11-15T07:09:42;19.10;40.20
33564;DHT22;19894;48.452;11.494;2022-11-15T07:12:08;19.10;40.30
33564;DHT22;19894;48.452;11.494;2022-11-15T07:14:34;19.10;40.30
33564;DHT22;19894;48.452;11.494;2022-11-15T07:16:59;19.10;40.40
33564;DHT22;19894;48.452;11.494;2022-11-15T07:19:25;19.10;40.50
33564;DHT22;19894;48.452;11.494;2022-11-15T07:21:51;19.10;40.50
33564;DHT22;19894;48.452;11.494;2022-11-15T07:24:17;19.10;40.40
33564;DHT22;19894;48.452;11.494;2022-11-15T07:26:42;19.10;40.60
33564;DHT22;19894;48.452;11.494;2022-11-15T07:29:08;19.10;40.50
33564;DHT22;19894;48.452;11.494;2022-11-15T07:31:34;19.10;40.50
33564;DHT22;19894;48.452;11.494;2022-11-15T07:33:59;19.10;40.40
33564;DHT22;19894;48.452;11.494;2022-11-15T07:36:25;19.10;40.40
33564;DHT22;19894;48.452;11.494;2022-11-15T07:38:50;19.10;40.40
33564;DHT22;19894;48.452;11.494;2022-11-15T07:41:16;19.10;40.30
33564;DHT22;19894;48.452;11.494;2022-11-15T07:43:42;19.00;40.10
33564;DHT22;19894;48.452;11.494;2022-11-15T07:46:08;19.10;39.90
33564;DHT22;19894;48.452;11.494;2022-11-15T07:48:35;19.10;39.70
33564;DHT22;19894;48.452;11.494;2022-11-15T07:51:01;19.10;39.60
33564;DHT22;19894;48.452;11.494;2022-11-15T07:53:27;19.10;40.00
33564;DHT22;19894;48.452;11.494;2022-11-15T07:55:53;19.10;39.20
33564;DHT22;19894;48.452;11.494;2022-11-15T07:58:19;19.10;39.10
33564;DHT22;19894;48.452;11.494;2022-11-15T08:00:45;19.10;39.00
33564;DHT22;19894;48.452;11.494;2022-11-15T08:03:12;19.10;39.10
33564;DHT22;19894;48.452;11.494;2022-11-15T08:05:40;19.10;39.20
33564;DHT22;19894;48.452;11.494;2022-11-15T08:08:07;19.10;39.50
33564;DHT22;19894;48.452;11.494;2022-11-15T08:10:33;19.10;39.80
33564;DHT22;19894;48.452;11.494;2022-11-15T08:12:59;19.10;40.00
33564;DHT22;19894;48.452;11.494;2022-11-15T08:15:26;19.10;40.20
33564;DHT22;19894;48.452;11.494;2022-11-15T08:17:59;19.10;40.20
33564;DHT22;19894;48.452;11.494;2022-11-15T08:20:27;19.10;40.30
33564;DHT22;19894;48.452;11.494;2022-11-15T08:23:00;19.10;40.30
33564;DHT22;19894;48.452;11.494;2022-11-15T08:25:26;19.10;40.30
33564;DHT22;19894;48.452;11.494;2022-11-15T08:27:53;19.00;40.30
33564;DHT22;19894;48.452;11.494;2022-11-15T08:30:19;19.00;40.30
33564;DHT22;19894;48.452;11.494;2022-11-15T08:32:44;19.10;40.50
33564;DHT22;19894;48.452;11.494;2022-11-15T08:35:10;19.10;41.00
33564;DHT22;19894;48.452;11.494;2022-11-15T08:37:37;19.10;40.50
33564;DHT22;19894;48.452;11.494;2022-11-15T08:40:03;19.00;40.40
33564;DHT22;19894;48.452;11.494;2022-11-15T08:42:29;19.10;40.40
33564;DHT22;19894;48.452;11.494;2022-11-15T08:44:54;19.00;40.30
33564;DHT22;19894;48.452;11.494;2022-11-15T08:47:20;19.10;40.20
33564;DHT22;19894;48.452;11.494;2022-11-15T08:49:45;19.10;40.10
33564;DHT22;19894;48.452;11.494;2022-11-15T08:52:11;19.00;39.90
33564;DHT22;19894;48.452;11.494;2022-11-15T08:54:37;19.10;39.90
33564;DHT22;19894;48.452;11.494;2022-11-15T08:57:02;19.10;39.80
33564;DHT22;19894;48.452;11.494;2022-11-15T08:59:28;19.10;39.80
33564;DHT22;19894;48.452;11.494;2022-11-15T09:01:54;19.10;39.80
33564;DHT22;19894;48.452;11.494;2022-11-15T09:04:19;19.10;39.90
33564;DHT22;19894;48.452;11.494;2022-11-15T09:06:45;19.10;39.90
33564;DHT22;19894;48.452;11.494;2022-11-15T09:09:11;19.10;39.90
33564;DHT22;19894;48.452;11.494;2022-11-15T09:11:37;19.10;40.00
33564;DHT22;19894;48.452;11.494;2022-11-15T09:14:03;19.10;40.10
33564;DHT22;19894;48.452;11.494;2022-11-15T09:16:30;19.10;40.20
33564;DHT22;19894;48.452;11.494;2022-11-15T09:18:56;19.10;40.30
33564;DHT22;19894;48.452;11.494;2022-11-15T09:21:21;19.10;40.40
33564;DHT22;19894;48.452;11.494;2022-11-15T09:23:50;19.10;40.50
33564;DHT22;19894;48.452;11.494;2022-11-15T09:26:16;19.10;40.60
33564;DHT22;19894;48.452;11.494;2022-11-15T09:28:41;19.10;40.60
33564;DHT22;19894;48.452;11.494;2022-11-15T09:31:07;19.10;40.60
33564;DHT22;19894;48.452;11.494;2022-11-15T09:33:33;19.10;40.60
33564;DHT22;19894;48.452;11.494;2022-11-15T09:36:09;19.10;40.60
33564;DHT22;19894;48.452;11.494;2022-11-15T09:38:35;19.10;40.70
33564;DHT22;19894;48.452;11.494;2022-11-15T09:41:18;19.10;40.70
33564;DHT22;19894;48.452;11.494;2022-11-15T09:43:59;19.10;40.70
33564;DHT22;19894;48.452;11.494;2022-11-15T09:49:02;19.10;40.80
33564;DHT22;19894;48.452;11.494;2022-11-15T09:51:44;19.10;40.80
33564;DHT22;19894;48.452;11.494;2022-11-15T09:54:32;19.10;40.70
33564;DHT22;19894;48.452;11.494;2022-11-15T09:57:13;19.10;40.60
33564;DHT22;19894;48.452;11.494;2022-11-15T10:00:00;19.10;40.60
33564;DHT22;19894;48.452;11.494;2022-11-15T10:05:01;19.10;40.70
33564;DHT22;19894;48.452;11.494;2022-11-15T10:12:49;19.10;40.70
33564;DHT22;19894;48.452;11.494;2022-11-15T10:15:17;19.10;40.70
33564;DHT22;19894;48.452;11.494;2022-11-15T10:20:50;19.10;40.80
33564;DHT22;19894;48.452;11.494;2022-11-15T10:23:20;19.10;40.90
33564;DHT22;19894;48.452;11.494;2022-11-15T10:25:46;19.10;40.90
33564;DHT22;19894;48.452;11.494;2022-11-15T10:30:46;19.10;41.00
33564;DHT22;19894;48.452;11.494;2022-11-15T10:33:37;19.10;41.00
33564;DHT22;19894;48.452;11.494;2022-11-15T10:41:37;19.10;41.10
33564;DHT22;19894;48.452;11.494;2022-11-15T10:49:29;19.00;41.70
33564;DHT22;19894;48.452;11.494;2022-11-15T10:51:57;19.10;41.20
33564;DHT22;19894;48.452;11.494;2022-11-15T10:54:24;19.10;41.30
33564;DHT22;19894;48.452;11.494;2022-11-15T10:56:52;19.10;41.20
33564;DHT22;19894;48.452;11.494;2022-11-15T10:59:27;19.10;41.20
33564;DHT22;19894;48.452;11.494;2022-11-15T11:01:53;19.00;41.10
33564;DHT22;19894;48.452;11.494;2022-11-15T11:04:19;19.10;41.20
33564;DHT22;19894;48.452;11.494;2022-11-15T11:06:55;19.10;41.20
33564;DHT22;19894;48.452;11.494;2022-11-15T11:12:00;19.10;41.20
33564;DHT22;19894;48.452;11.494;2022-11-15T11:14:29;19.10;41.20
33564;DHT22;19894;48.452;11.494;2022-11-15T11:31:38;19.10;41.30
33564;DHT22;19894;48.452;11.494;2022-11-15T11:34:34;19.10;41.30
33564;DHT22;19894;48.452;11.494;2022-11-15T11:37:29;19.10;41.40
33564;DHT22;19894;48.452;11.494;2022-11-15T11:49:07;19.10;41.50
33564;DHT22;19894;48.452;11.494;2022-11-15T11:51:38;19.10;41.60
33564;DHT22;19894;48.452;11.494;2022-11-15T11:54:19;19.10;41.60
33564;DHT22;19894;48.452;11.494;2022-11-15T11:56:45;19.10;41.70
33564;DHT22;19894;48.452;11.494;2022-11-15T11:59:37;19.10;41.70
33564;DHT22;19894;48.452;11.494;2022-11-15T12:02:31;19.10;41.80
33564;DHT22;19894;48.452;11.494;2022-11-15T12:05:20;19.10;41.70
33564;DHT22;19894;48.452;11.494;2022-11-15T12:07:50;19.10;41.80
33564;DHT22;19894;48.452;11.494;2022-11-15T12:10:28;19.10;41.80
33564;DHT22;19894;48.452;11.494;2022-11-15T12:13:13;19.10;41.80
33564;DHT22;19894;48.452;11.494;2022-11-15T12:15:49;19.10;41.80
33564;DHT22;19894;48.452;11.494;2022-11-15T12:18:17;19.10;41.80
33564;DHT22;19894;48.452;11.494;2022-11-15T12:20:53;19.10;41.80
33564;DHT22;19894;48.452;11.494;2022-11-15T12:23:28;19.10;41.90
33564;DHT22;19894;48.452;11.494;2022-11-15T12:26:06;19.10;41.80
33564;DHT22;19894;48.452;11.494;2022-11-15T12:28:52;19.20;41.80
33564;DHT22;19894;48.452;11.494;2022-11-15T12:36:47;19.10;41.80
33564;DHT22;19894;48.452;11.494;2022-11-15T12:39:14;19.10;41.80
33564;DHT22;19894;48.452;11.494;2022-11-15T12:41:40;19.10;41.80
33564;DHT22;19894;48.452;11.494;2022-11-15T12:49:42;19.10;41.90
33564;DHT22;19894;48.452;11.494;2022-11-15T12:52:09;19.10;41.90
33564;DHT22;19894;48.452;11.494;2022-11-15T12:59:55;19.10;42.00
33564;DHT22;19894;48.452;11.494;2022-11-15T13:17:41;19.10;42.00
33564;DHT22;19894;48.452;11.494;2022-11-15T13:22:48;19.10;42.10
33564;DHT22;19894;48.452;11.494;2022-11-15T13:31:03;19.20;42.10
33564;DHT22;19894;48.452;11.494;2022-11-15T13:33:39;19.10;42.00
33564;DHT22;19894;48.452;11.494;2022-11-15T13:36:32;19.20;42.10
33564;DHT22;19894;48.452;11.494;2022-11-15T13:41:30;19.10;42.00
33564;DHT22;19894;48.452;11.494;2022-11-15T13:43:57;19.20;42.10
33564;DHT22;19894;48.452;11.494;2022-11-15T13:46:31;19.10;42.10
33564;DHT22;19894;48.452;11.494;2022-11-15T13:51:44;19.10;42.20
33564;DHT22;19894;48.452;11.494;2022-11-15T13:57:12;19.10;42.30
33564;DHT22;19894;48.452;11.494;2022-11-15T13:59:51;19.10;42.30
33564;DHT22;19894;48.452;11.494;2022-11-15T14:02:21;19.10;42.30
33564;DHT22;19894;48.452;11.494;2022-11-15T14:04:54;19.10;42.30
33564;DHT22;19894;48.452;11.494;2022-11-15T14:07:23;19.10;42.40
33564;DHT22;19894;48.452;11.494;2022-11-15T14:09:49;19.10;42.50
33564;DHT22;19894;48.452;11.494;2022-11-15T14:12:32;19.10;42.60
33564;DHT22;19894;48.452;11.494;2022-11-15T14:15:00;19.10;42.70
33564;DHT22;19894;48.452;11.494;2022-11-15T14:19:55;19.10;42.70
33564;DHT22;19894;48.452;11.494;2022-11-15T14:22:21;19.20;42.70
33564;DHT22;19894;48.452;11.494;2022-11-15T14:25:15;19.20;42.70
33564;DHT22;19894;48.452;11.494;2022-11-15T14:27:43;19.20;42.70
33564;DHT22;19894;48.452;11.494;2022-11-15T14:30:14;19.20;42.80
33564;DHT22;19894;48.452;11.494;2022-11-15T14:32:46;19.20;42.80
33564;DHT22;19894;48.452;11.494;2022-11-15T14:35:16;19.20;42.70
33564;DHT22;19894;48.452;11.494;2022-11-15T14:37:42;19.20;42.70
33564;DHT22;19894;48.452;11.494;2022-11-15T14:40:16;19.20;42.70
33564;DHT22;19894;48.452;11.494;2022-11-15T14:42:43;19.20;42.60
33564;DHT22;19894;48.452;11.494;2022-11-15T14:47:40;19.20;42.60
33564;DHT22;19894;48.452;11.494;2022-11-15T14:50:06;19.20;42.60
33564;DHT22;19894;48.452;11.494;2022-11-15T14:52:32;19.10;42.70
33564;DHT22;19894;48.452;11.494;2022-11-15T14:55:01;19.20;42.80
33564;DHT22;19894;48.452;11.494;2022-11-15T14:57:27;19.10;42.80
33564;DHT22;19894;48.452;11.494;2022-11-15T14:59:53;19.20;42.90
33564;DHT22;19894;48.452;11.494;2022-11-15T15:02:21;19.20;42.90
33564;DHT22;19894;48.452;11.494;2022-11-15T15:04:47;19.20;42.90
33564;DHT22;19894;48.452;11.494;2022-11-15T15:07:14;19.20;42.90
33564;DHT22;19894;48.452;11.494;2022-11-15T15:09:40;19.20;42.90
33564;DHT22;19894;48.452;11.494;2022-11-15T15:12:19;19.10;43.00
33564;DHT22;19894;48.452;11.494;2022-11-15T15:14:47;19.20;43.00
33564;DHT22;19894;48.452;11.494;2022-11-15T15:17:13;19.10;43.00
33564;DHT22;19894;48.452;11.494;2022-11-15T15:19:38;19.10;43.00
33564;DHT22;19894;48.452;11.494;2022-11-15T15:22:04;19.10;43.70
33564;DHT22;19894;48.452;11.494;2022-11-15T15:24:30;19.20;43.30
33564;DHT22;19894;48.452;11.494;2022-11-15T15:26:55;19.20;43.30
33564;DHT22;19894;48.452;11.494;2022-11-15T15:29:21;19.10;43.30
33564;DHT22;19894;48.452;11.494;2022-11-15T15:31:48;19.20;43.30
33564;DHT22;19894;48.452;11.494;2022-11-15T15:34:13;19.20;43.30
33564;DHT22;19894;48.452;11.494;2022-11-15T15:36:39;19.20;43.30
33564;DHT22;19894;48.452;11.494;2022-11-15T15:39:05;19.20;43.20
33564;DHT22;19894;48.452;11.494;2022-11-15T15:41:30;19.20;43.20
33564;DHT22;19894;48.452;11.494;2022-11-15T15:43:56;19.20;43.20
33564;DHT22;19894;48.452;11.494;2022-11-15T15:46:21;19.20;43.20
33564;DHT22;19894;48.452;11.494;2022-11-15T15:48:48;19.20;43.10
33564;DHT22;19894;48.452;11.494;2022-11-15T15:51:14;19.20;43.00
33564;DHT22;19894;48.452;11.494;2022-11-15T15:53:39;19.20;42.90
33564;DHT22;19894;48.452;11.494;2022-11-15T15:56:05;19.20;43.00
33564;DHT22;19894;48.452;11.494;2022-11-15T15:58:33;19.20;43.00
33564;DHT22;19894;48.452;11.494;2022-11-15T16:00:59;19.10;43.00
33564;DHT22;19894;48.452;11.494;2022-11-15T16:03:25;19.20;43.00
33564;DHT22;19894;48.452;11.494;2022-11-15T16:05:50;19.20;43.00
33564;DHT22;19894;48.452;11.494;2022-11-15T16:08:22;19.20;43.00
33564;DHT22;19894;48.452;11.494;2022-11-15T16:10:48;19.20;43.00
33564;DHT22;19894;48.452;11.494;2022-11-15T16:13:14;19.20;43.00
33564;DHT22;19894;48.452;11.494;2022-11-15T16:15:40;19.10;43.00
33564;DHT22;19894;48.452;11.494;2022-11-15T16:18:06;19.10;43.00
33564;DHT22;19894;48.452;11.494;2022-11-15T16:20:45;19.20;43.00
33564;DHT22;19894;48.452;11.494;2022-11-15T16:23:16;19.10;43.00
33564;DHT22;19894;48.452;11.494;2022-11-15T16:25:53;19.10;43.00
33564;DHT22;19894;48.452;11.494;2022-11-15T16:28:23;19.10;43.00
33564;DHT22;19894;48.452;11.494;2022-11-15T16:30:58;19.20;43.10
33564;DHT22;19894;48.452;11.494;2022-11-15T16:33:24;19.20;43.10
33564;DHT22;19894;48.452;11.494;2022-11-15T16:35:50;19.20;43.10
33564;DHT22;19894;48.452;11.494;2022-11-15T16:38:17;19.20;43.00
33564;DHT22;19894;48.452;11.494;2022-11-15T16:40:43;19.20;43.00
33564;DHT22;19894;48.452;11.494;2022-11-15T16:43:09;19.20;43.00
33564;DHT22;19894;48.452;11.494;2022-11-15T16:45:34;19.20;43.00
33564;DHT22;19894;48.452;11.494;2022-11-15T16:48:00;19.20;42.90
33564;DHT22;19894;48.452;11.494;2022-11-15T16:50:28;19.20;42.90
33564;DHT22;19894;48.452;11.494;2022-11-15T16:52:56;19.20;42.80
33564;DHT22;19894;48.452;11.494;2022-11-15T16:55:27;19.20;42.80
33564;DHT22;19894;48.452;11.494;2022-11-15T16:57:54;19.20;42.80
33564;DHT22;19894;48.452;11.494;2022-11-15T17:00:20;19.20;42.80
33564;DHT22;19894;48.452;11.494;2022-11-15T17:02:49;19.20;42.80
33564;DHT22;19894;48.452;11.494;2022-11-15T17:05:16;19.20;42.80
33564;DHT22;19894;48.452;11.494;2022-11-15T17:07:42;19.20;42.80
33564;DHT22;19894;48.452;11.494;2022-11-15T17:10:10;19.20;42.90
33564;DHT22;19894;48.452;11.494;2022-11-15T17:12:36;19.20;42.90
33564;DHT22;19894;48.452;11.494;2022-11-15T17:15:03;19.10;42.80
33564;DHT22;19894;48.452;11.494;2022-11-15T17:17:30;19.10;42.80
33564;DHT22;19894;48.452;11.494;2022-11-15T17:19:56;19.10;42.90
33564;DHT22;19894;48.452;11.494;2022-11-15T17:22:22;19.10;42.90
33564;DHT22;19894;48.452;11.494;2022-11-15T17:24:48;19.20;43.00
33564;DHT22;19894;48.452;11.494;2022-11-15T17:27:13;19.20;42.90
33564;DHT22;19894;48.452;11.494;2022-11-15T17:29:40;19.20;43.00
33564;DHT22;19894;48.452;11.494;2022-11-15T17:32:07;19.20;42.90
33564;DHT22;19894;48.452;11.494;2022-11-15T17:34:32;19.10;42.90
33564;DHT22;19894;48.452;11.494;2022-11-15T17:36:58;19.20;42.90